createdAt,value
2023-01-13T00:01:02.772Z,1.00
2023-01-13T00:03:29.538Z,1.10
2023-01-13T00:05:59.398Z,1.60
2023-01-13T00:08:25.960Z,1.13
2023-01-13T00:10:52.496Z,0.90
2023-01-13T00:13:26.703Z,1.13
2023-01-13T00:15:58.012Z,1.30
2023-01-13T00:18:24.814Z,1.20
2023-01-13T00:21:06.357Z,1.47
2023-01-13T00:23:35.785Z,1.20
2023-01-13T00:26:05.614Z,0.93
2023-01-13T00:28:32.408Z,1.03
2023-01-13T00:31:09.856Z,1.10
2023-01-13T00:33:36.694Z,1.03
2023-01-13T00:36:04.667Z,1.10
2023-01-13T00:38:32.753Z,1.20
2023-01-13T00:41:10.689Z,1.00
2023-01-13T00:43:38.141Z,2.30
2023-01-13T00:46:06.790Z,1.20
2023-01-13T00:48:33.872Z,1.17
2023-01-13T00:51:02.909Z,1.03
2023-01-13T00:53:30.659Z,1.17
2023-01-13T00:56:01.221Z,1.47
2023-01-13T00:58:28.180Z,1.33
2023-01-13T01:00:54.867Z,1.30
2023-01-13T01:03:21.527Z,1.43
2023-01-13T01:05:48.351Z,1.67
2023-01-13T01:08:14.897Z,1.40
2023-01-13T01:10:41.440Z,1.47
2023-01-13T01:13:08.067Z,1.33
2023-01-13T01:15:34.633Z,1.60
2023-01-13T01:18:01.213Z,1.70
2023-01-13T01:20:27.797Z,1.70
2023-01-13T01:22:54.358Z,2.33
2023-01-13T01:25:20.920Z,1.80
2023-01-13T01:27:47.502Z,2.10
2023-01-13T01:30:14.897Z,1.93
2023-01-13T01:32:41.576Z,1.60
2023-01-13T01:35:08.413Z,1.90
2023-01-13T01:37:35.021Z,1.83
2023-01-13T01:40:01.565Z,2.17
2023-01-13T01:42:46.782Z,1.97
2023-01-13T01:45:21.712Z,2.40
2023-01-13T01:47:50.683Z,2.07
2023-01-13T01:50:18.042Z,2.10
2023-01-13T01:52:48.465Z,1.93
2023-01-13T01:55:24.571Z,2.27
2023-01-13T01:58:18.946Z,1.93
2023-01-13T02:00:45.626Z,2.80
2023-01-13T02:03:12.312Z,2.90
2023-01-13T02:05:39.115Z,2.30
2023-01-13T02:08:05.943Z,3.07
2023-01-13T02:10:32.746Z,2.73
2023-01-13T02:13:01.946Z,2.87
2023-01-13T02:16:00.099Z,2.80
2023-01-13T02:19:09.453Z,2.93
2023-01-13T02:22:13.818Z,3.00
2023-01-13T02:25:06.324Z,3.00
2023-01-13T02:28:00.495Z,3.53
2023-01-13T02:31:03.357Z,2.80
2023-01-13T02:34:03.881Z,2.80
2023-01-13T02:36:48.931Z,2.57
2023-01-13T02:39:23.428Z,3.17
2023-01-13T02:42:16.769Z,2.93
2023-01-13T02:44:49.162Z,2.70
2023-01-13T02:47:25.470Z,2.47
2023-01-13T02:50:04.435Z,2.90
2023-01-13T02:52:41.344Z,3.00
2023-01-13T02:55:11.977Z,3.37
2023-01-13T02:57:39.938Z,2.67
2023-01-13T03:00:07.671Z,2.70
2023-01-13T03:02:34.224Z,3.20
2023-01-13T03:05:00.785Z,3.80
2023-01-13T03:07:49.433Z,4.43
2023-01-13T03:10:30.312Z,3.40
2023-01-13T03:13:16.916Z,3.10
2023-01-13T03:16:15.616Z,3.77
2023-01-13T03:19:09.127Z,3.43
2023-01-13T03:21:57.697Z,3.30
2023-01-13T03:24:43.083Z,3.40
2023-01-13T03:27:30.809Z,2.93
2023-01-13T03:30:04.803Z,2.83
2023-01-13T03:32:37.325Z,3.67
2023-01-13T03:35:20.705Z,3.43
2023-01-13T03:37:52.085Z,2.83
2023-01-13T03:40:25.997Z,3.50
2023-01-13T03:43:19.062Z,3.40
2023-01-13T03:45:48.395Z,3.33
2023-01-13T03:48:18.189Z,3.43
2023-01-13T03:50:48.350Z,2.87
2023-01-13T03:53:38.298Z,3.80
2023-01-13T03:56:22.862Z,3.70
2023-01-13T03:58:51.279Z,3.80
2023-01-13T04:01:29.711Z,3.90
2023-01-13T04:03:59.351Z,4.07
2023-01-13T04:06:36.050Z,4.77
2023-01-13T04:09:09.323Z,3.80
2023-01-13T04:11:40.275Z,3.43
2023-01-13T04:14:08.454Z,3.30
2023-01-13T04:16:37.541Z,3.63
2023-01-13T04:19:04.360Z,4.37
2023-01-13T04:21:30.896Z,3.20
2023-01-13T04:23:57.312Z,4.30
2023-01-13T04:26:24.360Z,3.77
2023-01-13T04:28:51.933Z,3.73
2023-01-13T04:31:18.403Z,3.53
2023-01-13T04:33:44.948Z,4.37
2023-01-13T04:36:11.373Z,4.20
2023-01-13T04:38:37.843Z,3.77
2023-01-13T04:41:04.682Z,3.57
2023-01-13T04:43:31.261Z,5.10
2023-01-13T04:45:57.706Z,3.40
2023-01-13T04:48:24.184Z,4.63
2023-01-13T04:50:50.576Z,4.40
2023-01-13T04:53:17.087Z,3.50
2023-01-13T04:55:44.504Z,3.47
2023-01-13T04:58:11.586Z,4.40
2023-01-13T05:00:38.396Z,3.67
2023-01-13T05:03:05.297Z,3.37
2023-01-13T05:05:32.295Z,3.87
2023-01-13T05:07:58.784Z,3.87
2023-01-13T05:10:25.431Z,4.20
2023-01-13T05:13:10.550Z,4.53
2023-01-13T05:15:55.980Z,3.80
2023-01-13T05:18:22.465Z,3.43
2023-01-13T05:20:49.697Z,3.57
2023-01-13T05:23:34.731Z,3.90
2023-01-13T05:26:01.378Z,4.37
2023-01-13T05:28:32.091Z,3.63
2023-01-13T05:30:58.546Z,4.50
2023-01-13T05:33:25.147Z,4.17
2023-01-13T05:35:51.580Z,4.37
2023-01-13T05:38:18.615Z,3.40
2023-01-13T05:41:04.068Z,3.97
2023-01-13T05:43:30.604Z,4.10
2023-01-13T05:45:56.997Z,3.43
2023-01-13T05:48:28.579Z,4.53
2023-01-13T05:50:55.065Z,3.47
2023-01-13T05:53:22.220Z,3.83
2023-01-13T05:55:49.557Z,4.20
2023-01-13T05:58:17.279Z,4.70
2023-01-13T06:00:44.203Z,3.97
2023-01-13T06:03:11.278Z,4.57
2023-01-13T06:05:38.881Z,4.20
2023-01-13T06:08:06.746Z,4.60
2023-01-13T06:10:33.783Z,3.67
2023-01-13T06:13:00.245Z,3.97
2023-01-13T06:15:26.736Z,4.00
2023-01-13T06:17:53.830Z,3.37
2023-01-13T06:20:20.724Z,4.47
2023-01-13T06:22:49.066Z,3.70
2023-01-13T06:25:28.665Z,4.57
2023-01-13T06:27:56.562Z,3.97
2023-01-13T06:30:23.082Z,3.57
2023-01-13T06:32:52.996Z,5.10
2023-01-13T06:35:24.123Z,4.43
2023-01-13T06:37:52.609Z,3.80
2023-01-13T06:40:19.312Z,4.80
2023-01-13T06:43:05.102Z,4.00
2023-01-13T06:45:32.311Z,3.77
2023-01-13T06:47:59.888Z,4.17
2023-01-13T06:50:28.017Z,3.30
2023-01-13T06:52:54.590Z,4.17
2023-01-13T06:55:21.031Z,3.57
2023-01-13T06:57:52.790Z,3.83
2023-01-13T07:00:20.374Z,4.33
2023-01-13T07:02:47.095Z,4.30
2023-01-13T07:05:14.090Z,3.93
2023-01-13T07:07:41.294Z,4.37
2023-01-13T07:10:09.970Z,4.23
2023-01-13T07:12:56.451Z,4.60
2023-01-13T07:15:23.322Z,3.90
2023-01-13T07:17:49.822Z,4.10
2023-01-13T07:20:16.868Z,4.43
2023-01-13T07:22:43.493Z,3.47
2023-01-13T07:25:10.350Z,4.53
2023-01-13T07:27:36.909Z,3.60
2023-01-13T07:30:05.163Z,3.90
2023-01-13T07:32:33.175Z,4.20
2023-01-13T07:35:05.112Z,3.47
2023-01-13T07:37:33.328Z,2.93
2023-01-13T07:40:03.197Z,3.27
2023-01-13T07:42:48.597Z,3.90
2023-01-13T07:45:15.232Z,3.67
2023-01-13T07:47:41.846Z,3.20
2023-01-13T07:50:10.725Z,3.10
2023-01-13T07:52:37.118Z,3.43
2023-01-13T07:55:03.619Z,2.90
2023-01-13T07:57:30.051Z,3.00
2023-01-13T07:59:56.478Z,3.20
2023-01-13T08:02:23.202Z,3.37
2023-01-13T08:04:49.710Z,2.57
2023-01-13T08:07:16.145Z,5.13
2023-01-13T08:09:42.600Z,3.67
2023-01-13T08:12:27.798Z,2.60
2023-01-13T08:14:54.614Z,3.37
2023-01-13T08:17:21.034Z,2.67
2023-01-13T08:19:47.499Z,2.80
2023-01-13T08:22:13.987Z,2.53
2023-01-13T08:24:40.430Z,2.60
2023-01-13T08:27:06.909Z,2.10
2023-01-13T08:29:33.339Z,3.40
2023-01-13T08:31:59.833Z,2.97
2023-01-13T08:34:26.485Z,2.70
2023-01-13T08:36:52.953Z,2.30
2023-01-13T08:39:19.510Z,2.03
2023-01-13T08:41:55.137Z,2.23
2023-01-13T08:44:23.603Z,2.47
2023-01-13T08:46:50.108Z,2.50
2023-01-13T08:49:16.903Z,2.57
2023-01-13T08:51:43.574Z,2.40
2023-01-13T08:54:10.204Z,2.47
2023-01-13T08:56:37.121Z,2.10
2023-01-13T08:59:03.627Z,2.30
2023-01-13T09:01:30.460Z,2.00
2023-01-13T09:03:57.287Z,2.20
2023-01-13T09:06:23.799Z,1.83
2023-01-13T09:08:50.310Z,2.17
2023-01-13T09:11:39.901Z,2.23
2023-01-13T09:14:06.497Z,2.13
2023-01-13T09:16:32.999Z,2.00
2023-01-13T09:18:59.398Z,2.30
2023-01-13T09:21:26.440Z,2.10
2023-01-13T09:23:52.892Z,2.53
2023-01-13T09:26:21.311Z,2.30
2023-01-13T09:28:48.074Z,2.10
2023-01-13T09:31:14.760Z,2.10
2023-01-13T09:33:59.985Z,2.27
2023-01-13T09:36:26.592Z,2.40
2023-01-13T09:38:53.049Z,2.57
2023-01-13T09:41:40.212Z,2.10
2023-01-13T09:44:12.702Z,2.30
2023-01-13T09:46:47.952Z,2.50
2023-01-13T09:49:24.420Z,2.87
2023-01-13T09:52:10.467Z,2.03
2023-01-13T09:54:44.795Z,1.57
2023-01-13T09:57:13.643Z,2.13
2023-01-13T09:59:40.212Z,3.03
2023-01-13T10:02:27.979Z,3.23
2023-01-13T10:05:13.905Z,1.90
2023-01-13T10:07:48.929Z,3.00
2023-01-13T10:10:21.800Z,2.17
2023-01-13T10:13:07.400Z,3.07
2023-01-13T10:15:33.850Z,2.53
2023-01-13T10:18:08.276Z,3.43
2023-01-13T10:20:43.904Z,2.73
2023-01-13T10:23:29.361Z,2.57
2023-01-13T10:26:24.208Z,2.40
2023-01-13T10:28:52.780Z,2.80
2023-01-13T10:31:20.331Z,3.03
2023-01-13T10:33:46.769Z,3.07
2023-01-13T10:36:21.487Z,3.77
2023-01-13T10:38:49.656Z,2.67
2023-01-13T10:41:18.112Z,2.47
2023-01-13T10:44:08.393Z,3.10
2023-01-13T10:46:51.837Z,2.50
2023-01-13T10:49:38.598Z,2.80
2023-01-13T10:52:26.029Z,2.60
2023-01-13T10:54:53.673Z,3.10
2023-01-13T10:57:25.855Z,3.03
2023-01-13T10:59:53.446Z,3.37
2023-01-13T11:02:29.366Z,3.03
2023-01-13T11:04:55.857Z,2.87
2023-01-13T11:07:33.471Z,3.37
2023-01-13T11:10:05.838Z,2.80
2023-01-13T11:12:35.646Z,3.17
2023-01-13T11:15:04.628Z,2.50
2023-01-13T11:17:45.398Z,3.13
2023-01-13T11:20:11.746Z,3.10
2023-01-13T11:22:51.748Z,2.83
2023-01-13T11:25:35.313Z,2.30
2023-01-13T11:28:14.408Z,2.83
2023-01-13T11:30:43.826Z,2.60
2023-01-13T11:33:10.393Z,2.43
2023-01-13T11:35:56.695Z,2.50
2023-01-13T11:38:32.606Z,3.53
2023-01-13T11:41:09.154Z,2.90
2023-01-13T11:43:40.508Z,2.80
2023-01-13T11:46:10.076Z,2.77
2023-01-13T11:48:38.014Z,3.10
2023-01-13T11:51:07.356Z,2.53
2023-01-13T11:53:58.226Z,2.70
2023-01-13T11:57:03.184Z,2.53
2023-01-13T12:00:00.650Z,2.23
2023-01-13T12:02:50.832Z,2.30
2023-01-13T12:05:25.926Z,2.27
2023-01-13T12:08:01.259Z,2.00
2023-01-13T12:10:48.953Z,2.50
2023-01-13T12:13:46.156Z,2.50
2023-01-13T12:16:26.330Z,2.43
2023-01-13T12:19:21.287Z,2.40
2023-01-13T12:21:58.508Z,2.47
2023-01-13T12:24:31.761Z,2.70
2023-01-13T12:27:02.006Z,2.97
2023-01-13T12:29:35.088Z,2.90
2023-01-13T12:32:21.885Z,2.03
2023-01-13T12:35:11.467Z,2.10
2023-01-13T12:37:45.304Z,2.40
2023-01-13T12:40:48.042Z,1.80
2023-01-13T12:43:38.128Z,2.47
2023-01-13T12:46:20.017Z,2.10
2023-01-13T12:48:56.804Z,2.30
2023-01-13T12:51:27.814Z,2.70
2023-01-13T12:53:55.328Z,2.33
2023-01-13T12:56:23.080Z,2.53
2023-01-13T12:58:49.497Z,2.83
2023-01-13T13:01:16.344Z,2.53
2023-01-13T13:04:09.908Z,2.27
2023-01-13T13:06:37.606Z,2.40
2023-01-13T13:09:06.431Z,2.33
2023-01-13T13:12:03.761Z,2.10
2023-01-13T13:14:39.254Z,2.40
2023-01-13T13:17:28.681Z,2.30
2023-01-13T13:19:56.262Z,1.93
2023-01-13T13:22:28.656Z,1.93
2023-01-13T13:24:55.004Z,2.13
2023-01-13T13:27:26.371Z,2.17
2023-01-13T13:29:57.749Z,2.17
2023-01-13T13:32:37.998Z,2.40
2023-01-13T13:35:28.790Z,2.47
2023-01-13T13:38:19.449Z,2.40
2023-01-13T13:41:05.427Z,2.17
2023-01-13T13:44:02.132Z,2.60
2023-01-13T13:46:49.536Z,2.37
2023-01-13T13:49:21.213Z,2.30
2023-01-13T13:52:09.627Z,1.63
2023-01-13T13:54:37.470Z,2.73
2023-01-13T13:57:03.938Z,2.20
2023-01-13T13:59:30.835Z,2.00
2023-01-13T14:02:03.548Z,2.60
2023-01-13T14:04:36.079Z,2.33
2023-01-13T14:07:21.033Z,3.10
2023-01-13T14:09:50.156Z,2.10
2023-01-13T14:12:22.558Z,2.17
2023-01-13T14:14:49.916Z,2.10
2023-01-13T14:17:26.101Z,2.70
2023-01-13T14:20:01.528Z,2.70
2023-01-13T14:22:28.166Z,2.53
2023-01-13T14:24:58.390Z,2.53
2023-01-13T14:27:27.568Z,1.70
2023-01-13T14:29:59.471Z,2.30
2023-01-13T14:32:36.607Z,2.20
2023-01-13T14:35:06.602Z,2.60
2023-01-13T14:37:36.245Z,3.67
2023-01-13T14:40:03.150Z,2.60
2023-01-13T14:42:31.489Z,2.53
2023-01-13T14:44:58.594Z,2.00
2023-01-13T14:47:32.410Z,3.00
2023-01-13T14:50:28.040Z,1.90
2023-01-13T14:52:56.946Z,1.83
2023-01-13T14:55:34.379Z,1.90
2023-01-13T14:58:23.153Z,2.50
2023-01-13T15:00:50.866Z,2.40
2023-01-13T15:03:19.457Z,2.10
2023-01-13T15:05:51.351Z,2.10
2023-01-13T15:08:28.827Z,1.57
2023-01-13T15:11:03.559Z,1.97
2023-01-13T15:13:35.628Z,1.50
2023-01-13T15:16:08.306Z,1.70
2023-01-13T15:18:40.069Z,1.73
2023-01-13T15:21:07.523Z,1.63
2023-01-13T15:23:34.040Z,1.80
2023-01-13T15:26:00.936Z,1.53
2023-01-13T15:28:27.962Z,2.00
2023-01-13T15:30:56.051Z,2.10
2023-01-13T15:33:22.774Z,2.30
2023-01-13T15:35:51.312Z,1.90
2023-01-13T15:38:20.123Z,2.07
2023-01-13T15:40:47.692Z,1.87
2023-01-13T15:43:34.509Z,2.53
2023-01-13T15:46:20.794Z,1.87
2023-01-13T15:48:47.362Z,1.87
2023-01-13T15:51:21.132Z,1.87
2023-01-13T15:53:47.591Z,2.20
2023-01-13T15:56:25.238Z,1.87
2023-01-13T15:58:51.844Z,1.57
2023-01-13T16:01:18.463Z,1.77
2023-01-13T16:03:44.946Z,2.33
2023-01-13T16:06:17.353Z,2.37
2023-01-13T16:08:44.077Z,1.40
2023-01-13T16:11:11.322Z,1.90
2023-01-13T16:13:37.852Z,2.77
2023-01-13T16:16:29.173Z,1.80
2023-01-13T16:18:56.239Z,2.07
2023-01-13T16:21:23.003Z,2.83
2023-01-13T16:23:50.295Z,1.87
2023-01-13T16:26:23.073Z,2.30
2023-01-13T16:28:51.993Z,2.13
2023-01-13T16:31:26.744Z,2.33
2023-01-13T16:33:53.507Z,1.90
2023-01-13T16:36:21.284Z,2.57
2023-01-13T16:38:49.125Z,1.90
2023-01-13T16:41:15.925Z,2.13
2023-01-13T16:43:42.720Z,2.43
2023-01-13T16:46:29.186Z,2.20
2023-01-13T16:48:57.960Z,1.80
2023-01-13T16:51:24.741Z,2.27
2023-01-13T16:53:51.802Z,2.10
2023-01-13T16:56:24.437Z,2.17
2023-01-13T16:58:52.409Z,2.13
2023-01-13T17:01:27.608Z,2.37
2023-01-13T17:03:54.651Z,2.63
2023-01-13T17:06:42.842Z,2.13
2023-01-13T17:09:17.427Z,1.80
2023-01-13T17:11:44.023Z,1.60
2023-01-13T17:14:18.880Z,2.10
2023-01-13T17:16:46.516Z,2.57
2023-01-13T17:19:13.381Z,1.70
2023-01-13T17:21:40.012Z,1.90
2023-01-13T17:24:07.946Z,1.83
2023-01-13T17:26:48.018Z,1.90
2023-01-13T17:29:15.850Z,2.60
2023-01-13T17:31:42.523Z,1.90
2023-01-13T17:34:11.314Z,1.77
2023-01-13T17:36:37.726Z,2.20
2023-01-13T17:39:04.194Z,2.10
2023-01-13T17:41:30.678Z,1.80
2023-01-13T17:43:57.173Z,1.93
2023-01-13T17:46:23.910Z,1.77
2023-01-13T17:48:51.292Z,1.63
2023-01-13T17:51:18.722Z,1.90
2023-01-13T17:53:45.552Z,1.97
2023-01-13T17:56:13.913Z,2.10
2023-01-13T17:58:41.650Z,1.50
2023-01-13T18:01:09.801Z,2.07
2023-01-13T18:03:37.665Z,1.10
2023-01-13T18:06:09.549Z,1.13
2023-01-13T18:08:36.038Z,1.30
2023-01-13T18:11:02.972Z,1.47
2023-01-13T18:13:31.380Z,1.20
2023-01-13T18:16:12.923Z,1.40
2023-01-13T18:18:41.107Z,1.70
2023-01-13T18:21:26.863Z,1.70
2023-01-13T18:24:12.021Z,1.80
2023-01-13T18:26:56.794Z,1.70
2023-01-13T18:29:23.602Z,1.87
2023-01-13T18:31:50.519Z,1.90
2023-01-13T18:34:16.951Z,1.73
2023-01-13T18:36:43.408Z,2.20
2023-01-13T18:39:09.865Z,1.70
2023-01-13T18:41:54.660Z,4.07
2023-01-13T18:44:21.240Z,1.93
2023-01-13T18:46:47.707Z,2.10
2023-01-13T18:49:14.412Z,3.13
2023-01-13T18:51:41.166Z,2.03
2023-01-13T18:54:07.615Z,2.13
2023-01-13T18:56:34.039Z,1.97
2023-01-13T18:59:01.832Z,2.07
2023-01-13T19:01:29.596Z,2.33
2023-01-13T19:03:56.780Z,2.60
2023-01-13T19:06:27.734Z,1.80
2023-01-13T19:08:55.980Z,1.70
2023-01-13T19:11:23.512Z,1.70
2023-01-13T19:13:50.958Z,1.30
2023-01-13T19:16:18.843Z,1.63
2023-01-13T19:18:45.383Z,1.90
2023-01-13T19:21:11.871Z,1.97
2023-01-13T19:23:38.445Z,1.50
2023-01-13T19:26:07.444Z,1.60
2023-01-13T19:28:34.286Z,2.53
2023-01-13T19:31:02.800Z,1.77
2023-01-13T19:33:30.985Z,1.90
2023-01-13T19:35:57.714Z,1.70
2023-01-13T19:38:25.538Z,1.93
2023-01-13T19:41:00.373Z,2.17
2023-01-13T19:43:45.626Z,2.17
2023-01-13T19:46:13.060Z,1.60
2023-01-13T19:48:39.973Z,2.13
2023-01-13T19:51:06.588Z,2.67
2023-01-13T19:53:33.341Z,2.27
2023-01-13T19:55:59.811Z,2.70
2023-01-13T19:58:26.383Z,1.83
2023-01-13T20:00:53.892Z,1.90
2023-01-13T20:03:24.377Z,2.00
2023-01-13T20:05:51.989Z,2.23
2023-01-13T20:08:19.911Z,2.27
2023-01-13T20:10:46.756Z,2.80
2023-01-13T20:13:14.275Z,1.80
2023-01-13T20:15:41.401Z,2.37
2023-01-13T20:18:08.409Z,1.80
2023-01-13T20:20:35.214Z,2.13
2023-01-13T20:23:01.638Z,2.10
2023-01-13T20:25:28.937Z,2.47
2023-01-13T20:27:56.806Z,2.23
2023-01-13T20:30:23.806Z,2.10
2023-01-13T20:32:50.311Z,3.07
2023-01-13T20:35:17.184Z,1.70
2023-01-13T20:37:43.965Z,1.67
2023-01-13T20:40:14.171Z,2.40
2023-01-13T20:42:46.471Z,2.67
2023-01-13T20:45:17.309Z,2.53
2023-01-13T20:47:44.901Z,2.70
2023-01-13T20:50:12.008Z,2.37
2023-01-13T20:52:38.502Z,1.83
2023-01-13T20:55:06.752Z,2.03
2023-01-13T20:57:33.343Z,2.73
2023-01-13T21:00:00.040Z,2.77
2023-01-13T21:02:26.504Z,2.37
2023-01-13T21:04:52.946Z,4.63
2023-01-13T21:07:19.353Z,0.80
2023-01-13T21:09:45.924Z,1.20
2023-01-13T21:12:34.597Z,1.03
2023-01-13T21:15:20.167Z,1.00
2023-01-13T21:18:07.085Z,1.50
2023-01-13T21:20:34.925Z,1.20
2023-01-13T21:23:02.251Z,1.40
2023-01-13T21:25:29.559Z,1.70
2023-01-13T21:28:00.181Z,2.13
2023-01-13T21:30:26.736Z,2.67
2023-01-13T21:32:53.111Z,2.10
2023-01-13T21:35:19.539Z,2.33
2023-01-13T21:37:45.954Z,2.30
2023-01-13T21:40:13.915Z,2.00
2023-01-13T21:42:58.979Z,2.13
2023-01-13T21:45:44.018Z,2.40
2023-01-13T21:48:10.487Z,2.13
2023-01-13T21:50:38.176Z,2.70
2023-01-13T21:53:05.304Z,1.93
2023-01-13T21:55:32.774Z,2.00
2023-01-13T21:58:01.926Z,2.00
2023-01-13T22:00:31.019Z,2.30
2023-01-13T22:02:58.571Z,2.10
2023-01-13T22:05:25.726Z,2.17
2023-01-13T22:07:52.405Z,1.93
2023-01-13T22:10:23.977Z,2.23
2023-01-13T22:12:55.092Z,1.93
2023-01-13T22:15:22.308Z,2.23
2023-01-13T22:17:52.624Z,2.40
2023-01-13T22:20:19.962Z,2.50
2023-01-13T22:22:46.454Z,2.47
2023-01-13T22:25:14.702Z,1.77
2023-01-13T22:27:43.265Z,1.90
2023-01-13T22:30:18.123Z,1.73
2023-01-13T22:32:45.776Z,2.13
2023-01-13T22:35:13.097Z,2.13
2023-01-13T22:37:39.584Z,1.83
2023-01-13T22:40:08.013Z,1.80
2023-01-13T22:42:42.113Z,1.50
2023-01-13T22:45:12.612Z,1.60
2023-01-13T22:47:39.038Z,1.43
2023-01-13T22:50:07.365Z,1.57
2023-01-13T22:52:34.721Z,1.70
2023-01-13T22:55:02.105Z,1.53
2023-01-13T22:57:46.681Z,1.00
2023-01-13T23:00:14.941Z,1.10
2023-01-13T23:02:42.208Z,1.20
2023-01-13T23:05:08.835Z,1.07
2023-01-13T23:07:35.761Z,1.47
2023-01-13T23:10:02.877Z,1.40
2023-01-13T23:12:29.321Z,1.30
2023-01-13T23:14:55.780Z,1.30
2023-01-13T23:17:22.232Z,1.47
2023-01-13T23:19:48.752Z,1.63
2023-01-13T23:22:15.606Z,1.30
2023-01-13T23:24:42.086Z,1.27
2023-01-13T23:27:08.724Z,1.40
2023-01-13T23:29:35.135Z,1.30
2023-01-13T23:32:01.533Z,1.50
2023-01-13T23:34:28.028Z,1.80
2023-01-13T23:36:54.459Z,1.20
2023-01-13T23:39:20.943Z,1.20
2023-01-13T23:41:47.522Z,1.00
2023-01-13T23:44:14.148Z,1.50
2023-01-13T23:46:40.562Z,1.67
2023-01-13T23:49:07.006Z,1.20
2023-01-13T23:51:33.633Z,1.20
2023-01-13T23:54:03.031Z,1.30
2023-01-13T23:56:31.213Z,1.30
2023-01-13T23:58:58.034Z,1.30
